Strona główna
METAR-TAF:

METAR-TAF

Lotnisko :

Port lotniczy Damaszek

Damaszek, Syria

Szerokość geograficzna: 33-25N, Długość geograficzna: 036-31E, wysokość: 608 m

Aktualna obserwacja pogody

Raport powstał 16 minut temu, godzina 19:00 UTC
Wiatr 15 kt od południowo-południowy zachód
Temperatura 28°C
Wilgotność 27%
Ciśnienie 1007 hPa
Widzialność 10 km lub więcej
Brak chmur poniżej 1500 m i brak chmur cumulonimbus

METAR: OSDI 171900Z 21015KT CAVOK 28/07 Q1007

czas: 22:16 (19:16 UTC)

Prognoza

Prognoza ważna od 17 godzina 18 UTC do 18 godzina 24 UTC
Wiatr 20 kt od zachodnio-południowy zachód
Widzialność: 8000 m
Mało chmury na wysokości 3000 ft
Przejściowo
od 18 godzina 09 UTC do 18 godzina 18 UTC
Wiatr 20 kt od zachód w porywach dochodzący do 35 kt
Widzialność: 6000 m
Mało chmury na wysokości 2600 ft
Rozproszone chmury na wysokości 3000 ft

TAF: OSDI 1718/1824 24020KT 8000 FEW030 TEMPO 1809/1818 26020G35KT 6000 FEW026 TCU SCT030

Obserwacja i prognoza pogody dla ponad 4000 lotnisk (raport METAR i TAF).

Dostępne stacje oznaczono żółtymi i czerwonymi punktami na mapie.

Najedź kursorem aby zobaczyć nazwę stacji.

Kliknij aby zobaczyć obserwacje i prognozy pogody.

Aby zmienić mapę: kliknij na zielony przycisk z czarnym krzyżykiem, aby powiększyć; na zielony przycisk z myślnikiem, aby pomniejszyć; na zielone strzałki, aby przejść do map sąsiednich.


METAR-TAF: